createdAt,value
2019-01-13T22:51:28.071Z,982.93
2019-01-13T22:52:28.015Z,982.87
2019-01-13T22:53:28.751Z,982.92
2019-01-13T22:55:40.175Z,983.10
2019-01-13T22:56:40.388Z,983.09
2019-01-13T22:57:39.767Z,982.83
2019-01-13T22:58:39.748Z,982.98
2019-01-13T22:59:39.746Z,982.89
2019-01-13T23:00:39.760Z,982.87
2019-01-13T23:01:39.814Z,982.73
2019-01-13T23:02:39.739Z,982.90
2019-01-13T23:03:40.020Z,982.82
2019-01-13T23:04:39.995Z,982.86
2019-01-13T23:05:39.701Z,982.75
2019-01-13T23:06:39.676Z,982.82
2019-01-13T23:07:39.650Z,982.87
2019-01-13T23:08:39.636Z,982.79
2019-01-13T23:09:39.626Z,982.93
2019-01-13T23:10:39.627Z,982.81
2019-01-13T23:11:39.606Z,982.85
2019-01-13T23:12:39.846Z,982.78
2019-01-13T23:13:39.584Z,982.91
2019-01-13T23:14:39.574Z,982.89
2019-01-13T23:15:39.632Z,982.71
2019-01-13T23:16:39.553Z,982.80
2019-01-13T23:17:39.577Z,982.91
2019-01-13T23:18:39.539Z,982.84
2019-01-13T23:19:39.518Z,982.93
2019-01-13T23:20:39.526Z,982.85
2019-01-13T23:21:39.588Z,982.84
2019-01-13T23:22:39.495Z,982.89
2019-01-13T23:23:39.490Z,982.87
2019-01-13T23:24:39.470Z,982.99
2019-01-13T23:25:39.455Z,982.92
2019-01-13T23:26:39.469Z,983.10
2019-01-13T23:27:39.435Z,982.99
2019-01-13T23:28:39.525Z,983.05
2019-01-13T23:29:39.438Z,983.07
2019-01-13T23:30:39.400Z,983.04
2019-01-13T23:31:39.397Z,983.06
2019-01-13T23:32:39.412Z,983.08
2019-01-13T23:33:39.367Z,983.19
2019-01-13T23:34:39.359Z,983.20
2019-01-13T23:35:39.345Z,983.25
2019-01-13T23:39:27.203Z,983.22
2019-01-13T23:40:23.149Z,983.27
2019-01-13T23:41:23.254Z,983.33
2019-01-13T23:42:23.106Z,983.35
2019-01-13T23:43:23.038Z,983.43
2019-01-13T23:44:33.068Z,983.32
2019-01-13T23:45:23.053Z,983.37
2019-01-13T23:49:05.369Z,983.53
2019-01-13T23:50:05.358Z,983.71
2019-01-13T23:51:05.104Z,983.73
2019-01-13T23:52:14.122Z,983.79
2019-01-13T23:53:05.278Z,983.64
2019-01-13T23:54:05.983Z,983.61
2019-01-13T23:55:30.519Z,983.62
2019-01-13T23:56:05.247Z,983.82
2019-01-13T23:58:21.015Z,983.88
2019-01-13T23:59:20.670Z,983.97
